createdAt,value
2019-01-26T04:01:01.660Z,979.76
2019-01-26T04:02:01.582Z,979.69
2019-01-26T04:03:01.473Z,979.66
2019-01-26T04:04:01.705Z,979.63
2019-01-26T04:05:01.774Z,979.64
2019-01-26T04:06:01.948Z,979.63
2019-01-26T04:07:02.071Z,979.62
2019-01-26T04:08:02.195Z,979.63
2019-01-26T04:09:02.481Z,979.58
2019-01-26T04:10:02.502Z,979.64
2019-01-26T04:11:02.743Z,979.63
2019-01-26T04:12:02.876Z,979.60
2019-01-26T04:13:03.004Z,979.65
2019-01-26T04:14:03.213Z,979.62
2019-01-26T04:15:03.358Z,979.67
2019-01-26T04:16:03.514Z,979.61
2019-01-26T04:17:03.622Z,979.59
2019-01-26T04:18:03.837Z,979.59
2019-01-26T04:19:03.979Z,979.63
2019-01-26T04:20:04.138Z,979.63
2019-01-26T04:21:04.347Z,979.68
2019-01-26T04:22:04.428Z,979.65
2019-01-26T04:23:04.583Z,979.60
2019-01-26T04:24:04.716Z,979.63
2019-01-26T04:25:04.967Z,979.62
2019-01-26T04:26:05.119Z,979.61
2019-01-26T04:27:05.263Z,979.62
2019-01-26T04:28:05.430Z,979.64
2019-01-26T04:29:05.574Z,979.65
2019-01-26T04:30:05.732Z,979.68
2019-01-26T04:31:05.881Z,979.65
2019-01-26T04:32:05.987Z,979.61
2019-01-26T04:33:06.178Z,979.59
2019-01-26T04:34:06.294Z,979.58
2019-01-26T04:35:06.538Z,979.58
2019-01-26T04:36:06.659Z,979.58
2019-01-26T04:37:06.863Z,979.56
2019-01-26T04:38:06.954Z,979.57
2019-01-26T04:39:07.134Z,979.55
2019-01-26T04:40:07.290Z,979.52
2019-01-26T04:41:07.474Z,979.41
2019-01-26T04:42:07.620Z,979.43
2019-01-26T04:43:07.740Z,979.35
2019-01-26T04:44:07.952Z,979.39
2019-01-26T04:45:08.029Z,979.35
2019-01-26T04:46:08.245Z,979.42
2019-01-26T04:47:08.422Z,979.36
2019-01-26T04:48:09.270Z,979.38
2019-01-26T04:49:08.755Z,979.37
2019-01-26T04:50:08.941Z,979.41
2019-01-26T04:51:09.080Z,979.39
2019-01-26T04:52:09.219Z,979.45
2019-01-26T04:53:09.327Z,979.38
2019-01-26T04:54:09.503Z,979.46
2019-01-26T04:55:09.681Z,979.44
2019-01-26T04:56:09.823Z,979.43
2019-01-26T04:57:10.035Z,979.40
2019-01-26T04:58:10.153Z,979.39
2019-01-26T04:59:10.355Z,979.38
2019-01-26T05:00:10.635Z,979.39
2019-01-26T05:01:10.695Z,979.39
2019-01-26T05:02:10.790Z,979.42
2019-01-26T05:03:11.006Z,979.45
2019-01-26T05:04:11.103Z,979.44
2019-01-26T05:05:11.359Z,979.41
2019-01-26T05:06:11.449Z,979.34
2019-01-26T05:07:11.675Z,979.39
2019-01-26T05:08:11.780Z,979.39
2019-01-26T05:09:11.889Z,979.44
2019-01-26T05:10:12.704Z,979.42
2019-01-26T05:11:12.359Z,979.38
2019-01-26T05:12:12.476Z,979.29
2019-01-26T05:13:12.645Z,979.32
2019-01-26T05:14:12.776Z,979.34
2019-01-26T05:15:13.055Z,979.28
2019-01-26T05:16:13.182Z,979.28
2019-01-26T05:17:13.253Z,979.26
2019-01-26T05:18:13.393Z,979.22
2019-01-26T05:19:13.571Z,979.19
2019-01-26T05:20:13.776Z,979.22
2019-01-26T05:21:14.042Z,979.21
2019-01-26T05:22:14.200Z,979.16
2019-01-26T05:23:14.287Z,979.22
2019-01-26T05:24:14.469Z,979.25
2019-01-26T05:25:14.569Z,979.21
2019-01-26T05:26:14.848Z,979.23
2019-01-26T05:27:14.936Z,979.18
2019-01-26T05:28:15.037Z,979.25
2019-01-26T05:29:15.206Z,979.25
2019-01-26T05:30:15.395Z,979.23
2019-01-26T05:31:15.487Z,979.27
2019-01-26T05:32:15.712Z,979.23
2019-01-26T05:33:15.789Z,979.23
2019-01-26T05:34:15.999Z,979.28
2019-01-26T05:35:16.166Z,979.32
2019-01-26T05:36:16.317Z,979.29
2019-01-26T05:37:16.457Z,979.26
2019-01-26T05:38:16.582Z,979.35
2019-01-26T05:39:16.773Z,979.26
2019-01-26T05:40:16.955Z,979.34
2019-01-26T05:41:17.164Z,979.31
2019-01-26T05:42:17.399Z,979.29
2019-01-26T05:43:17.394Z,979.29
2019-01-26T05:44:17.648Z,979.31
2019-01-26T05:45:17.859Z,979.25
2019-01-26T05:46:17.978Z,979.25
2019-01-26T05:47:18.084Z,979.28
2019-01-26T05:48:18.268Z,979.32
2019-01-26T05:49:18.510Z,979.33
2019-01-26T05:50:18.595Z,979.32
2019-01-26T05:51:18.829Z,979.32
2019-01-26T05:52:18.873Z,979.36
2019-01-26T05:53:18.982Z,979.32
2019-01-26T05:54:19.214Z,979.30
2019-01-26T05:55:19.370Z,979.35
2019-01-26T05:56:19.563Z,979.38
2019-01-26T05:57:19.699Z,979.40
2019-01-26T05:58:19.868Z,979.44
2019-01-26T05:59:19.994Z,979.40
2019-01-26T06:00:20.154Z,979.32
2019-01-26T06:01:20.307Z,979.36
2019-01-26T06:02:20.499Z,979.35
2019-01-26T06:03:20.586Z,979.32
2019-01-26T06:04:20.770Z,979.38
2019-01-26T06:05:20.921Z,979.34
2019-01-26T06:06:21.142Z,979.35
2019-01-26T06:07:21.197Z,979.39
2019-01-26T06:08:21.429Z,979.32
2019-01-26T06:09:21.488Z,979.32
2019-01-26T06:10:21.715Z,979.33
2019-01-26T06:11:21.894Z,979.31
2019-01-26T06:12:22.024Z,979.38
2019-01-26T06:13:22.226Z,979.36
2019-01-26T06:14:22.323Z,979.34
2019-01-26T06:15:22.467Z,979.34
2019-01-26T06:16:22.612Z,979.36
2019-01-26T06:17:22.830Z,979.36
2019-01-26T06:18:23.873Z,979.39
2019-01-26T06:19:23.091Z,979.28
2019-01-26T06:20:23.357Z,979.34
2019-01-26T06:21:23.469Z,979.31
2019-01-26T06:22:23.565Z,979.31
2019-01-26T06:23:23.703Z,979.36
2019-01-26T06:24:23.948Z,979.34
2019-01-26T06:25:24.019Z,979.36
2019-01-26T06:26:24.201Z,979.37
2019-01-26T06:27:24.307Z,979.35
2019-01-26T06:28:24.553Z,979.41
2019-01-26T06:29:24.758Z,979.43
2019-01-26T06:30:24.871Z,979.42
2019-01-26T06:31:25.003Z,979.32
2019-01-26T06:32:25.178Z,979.37
2019-01-26T06:33:25.412Z,979.36
2019-01-26T06:34:25.536Z,979.29
2019-01-26T06:35:25.647Z,979.32
2019-01-26T06:36:25.821Z,979.36
2019-01-26T06:37:26.772Z,979.29
2019-01-26T06:38:26.165Z,979.21
2019-01-26T06:39:26.320Z,979.17
2019-01-26T06:40:26.509Z,979.16
2019-01-26T06:41:26.708Z,979.11
2019-01-26T06:42:26.932Z,979.14
2019-01-26T06:43:26.954Z,979.17
2019-01-26T06:44:27.180Z,979.19
2019-01-26T06:45:27.319Z,979.16
2019-01-26T06:46:27.501Z,979.23
2019-01-26T06:47:27.632Z,979.18
2019-01-26T06:48:27.770Z,979.24
2019-01-26T06:49:27.996Z,979.28
2019-01-26T06:50:28.133Z,979.16
2019-01-26T06:51:28.314Z,979.14
2019-01-26T06:52:28.420Z,979.18
2019-01-26T06:53:28.593Z,979.16
2019-01-26T06:54:28.754Z,979.23
2019-01-26T06:55:28.955Z,979.29
2019-01-26T06:56:29.070Z,979.21
2019-01-26T06:57:29.298Z,979.26
2019-01-26T06:58:29.395Z,979.21
2019-01-26T06:59:29.667Z,979.22
2019-01-26T07:00:29.710Z,979.23
2019-01-26T07:01:29.814Z,979.22
2019-01-26T07:02:29.964Z,979.26
2019-01-26T07:03:30.199Z,979.26
2019-01-26T07:04:30.322Z,979.25
2019-01-26T07:05:30.474Z,979.20
2019-01-26T07:06:30.628Z,979.24
2019-01-26T07:07:30.783Z,979.19
2019-01-26T07:08:32.899Z,979.15
2019-01-26T07:09:31.138Z,979.16
2019-01-26T07:10:31.286Z,979.14
2019-01-26T07:11:31.518Z,979.12
2019-01-26T07:12:31.779Z,979.13
2019-01-26T07:13:31.729Z,979.16
2019-01-26T07:14:32.024Z,979.15
2019-01-26T07:15:32.107Z,979.19
2019-01-26T07:16:32.371Z,979.21
2019-01-26T07:17:32.404Z,979.15
2019-01-26T07:18:32.596Z,979.10
2019-01-26T07:19:32.898Z,979.12
2019-01-26T07:20:32.954Z,979.11
2019-01-26T07:21:33.230Z,979.03
2019-01-26T07:22:33.238Z,978.97
2019-01-26T07:23:33.402Z,979.04
2019-01-26T07:24:33.681Z,978.95
2019-01-26T07:25:33.762Z,978.99
2019-01-26T07:26:33.906Z,978.95
2019-01-26T07:27:34.049Z,978.95
2019-01-26T07:28:34.255Z,978.99
2019-01-26T07:29:34.351Z,978.99
2019-01-26T07:30:34.527Z,979.08
2019-01-26T07:31:34.659Z,979.05
2019-01-26T07:32:34.872Z,979.04
2019-01-26T07:33:35.060Z,979.02
2019-01-26T07:34:35.152Z,979.06
2019-01-26T07:35:35.239Z,979.02
2019-01-26T07:36:35.518Z,978.94
2019-01-26T07:37:36.464Z,978.97
2019-01-26T07:38:35.781Z,978.96
2019-01-26T07:39:35.974Z,978.99
2019-01-26T07:40:36.147Z,978.97
2019-01-26T07:41:36.280Z,978.97
2019-01-26T07:42:36.438Z,978.95
2019-01-26T07:43:36.581Z,978.91
2019-01-26T07:44:36.668Z,978.93
2019-01-26T07:45:36.962Z,978.87
2019-01-26T07:46:37.392Z,978.91
2019-01-26T07:47:37.185Z,978.92
2019-01-26T07:48:37.403Z,978.91
2019-01-26T07:49:38.469Z,978.90
2019-01-26T07:50:49.064Z,978.95
2019-01-26T07:51:40.508Z,978.88
2019-01-26T07:52:39.953Z,978.83
2019-01-26T07:53:39.057Z,978.82
2019-01-26T07:54:38.394Z,978.87
2019-01-26T07:55:38.544Z,978.94
2019-01-26T07:56:38.657Z,978.91
2019-01-26T07:57:38.836Z,978.95
2019-01-26T07:58:38.963Z,978.90
2019-01-26T07:59:39.100Z,978.92
2019-01-26T08:00:39.418Z,978.89
2019-01-26T08:01:39.649Z,978.91
2019-01-26T08:02:39.665Z,978.94
2019-01-26T08:03:39.864Z,978.87
2019-01-26T08:04:39.957Z,978.90
2019-01-26T08:05:40.208Z,978.94
2019-01-26T08:06:40.367Z,978.90
2019-01-26T08:07:40.532Z,978.90
2019-01-26T08:08:40.714Z,978.93
2019-01-26T08:09:40.841Z,978.94
2019-01-26T08:10:40.950Z,978.92
2019-01-26T08:11:42.456Z,978.87
2019-01-26T08:12:41.321Z,978.93
2019-01-26T08:13:41.449Z,978.92
2019-01-26T08:14:41.585Z,978.88
2019-01-26T08:15:41.757Z,978.93
2019-01-26T08:16:42.035Z,978.88
2019-01-26T08:17:42.036Z,978.89
2019-01-26T08:18:42.228Z,978.96
2019-01-26T08:19:42.400Z,978.85
2019-01-26T08:20:42.504Z,978.91
2019-01-26T08:21:42.724Z,978.83
2019-01-26T08:22:42.868Z,978.85
2019-01-26T08:23:42.999Z,978.82
2019-01-26T08:24:44.607Z,978.76
2019-01-26T08:25:43.299Z,978.70
2019-01-26T08:26:43.475Z,978.74
2019-01-26T08:27:43.635Z,978.84
2019-01-26T08:28:43.764Z,978.89
2019-01-26T08:29:43.905Z,978.88
2019-01-26T08:30:44.151Z,978.81
2019-01-26T08:31:44.282Z,978.77
2019-01-26T08:32:44.431Z,978.88
2019-01-26T08:33:44.581Z,978.72
2019-01-26T08:34:44.725Z,978.89
2019-01-26T08:35:44.901Z,978.91
2019-01-26T08:36:45.086Z,978.86
2019-01-26T08:37:45.182Z,978.82
2019-01-26T08:38:45.376Z,978.83
2019-01-26T08:39:45.641Z,978.87
2019-01-26T08:40:45.745Z,978.93
2019-01-26T08:41:45.821Z,978.86
2019-01-26T08:42:45.983Z,978.89
2019-01-26T08:43:46.175Z,978.77
2019-01-26T08:44:46.317Z,978.96
2019-01-26T08:45:46.581Z,978.92
2019-01-26T08:46:46.681Z,978.86
2019-01-26T08:47:46.833Z,978.82
2019-01-26T08:48:47.039Z,978.89
2019-01-26T08:49:47.164Z,978.94
2019-01-26T08:50:47.252Z,978.91
2019-01-26T08:51:47.384Z,978.87
2019-01-26T08:52:47.574Z,978.89
2019-01-26T08:53:47.772Z,978.86
2019-01-26T08:54:47.909Z,978.84
2019-01-26T08:55:48.034Z,978.83
2019-01-26T08:56:48.182Z,978.92
2019-01-26T08:57:48.389Z,978.90
2019-01-26T08:58:48.559Z,978.79
2019-01-26T08:59:48.732Z,978.84
2019-01-26T09:00:48.807Z,978.85
2019-01-26T09:01:48.953Z,978.92
2019-01-26T09:02:49.192Z,978.89
2019-01-26T09:03:49.299Z,978.87
2019-01-26T09:04:49.468Z,978.93
2019-01-26T09:05:49.659Z,978.93
2019-01-26T09:06:49.712Z,978.89
2019-01-26T09:07:49.934Z,978.79
2019-01-26T09:08:50.055Z,978.83
2019-01-26T09:09:50.215Z,978.88
2019-01-26T09:10:50.397Z,978.87
2019-01-26T09:11:50.573Z,978.80
2019-01-26T09:12:50.768Z,978.91
2019-01-26T09:13:50.907Z,978.98
2019-01-26T09:14:51.088Z,978.93
2019-01-26T09:15:51.227Z,978.92
2019-01-26T09:16:51.354Z,978.90
2019-01-26T09:17:51.555Z,978.86
2019-01-26T09:18:51.662Z,978.84
2019-01-26T09:19:51.803Z,978.91
2019-01-26T09:20:52.045Z,978.88
2019-01-26T09:21:52.147Z,978.83
2019-01-26T09:22:52.318Z,978.88
2019-01-26T09:23:52.445Z,978.82
2019-01-26T09:24:52.655Z,978.83
2019-01-26T09:25:52.807Z,978.88
2019-01-26T09:26:52.936Z,978.84
2019-01-26T09:27:53.135Z,978.83
2019-01-26T09:28:53.303Z,978.80
2019-01-26T09:29:53.496Z,978.72
2019-01-26T09:30:53.577Z,978.82
2019-01-26T09:31:53.778Z,978.77
2019-01-26T09:32:53.874Z,978.77
2019-01-26T09:33:54.062Z,978.75
2019-01-26T09:34:54.294Z,978.76
2019-01-26T09:35:54.404Z,978.70
2019-01-26T09:36:54.556Z,978.73
2019-01-26T09:37:54.709Z,978.81
2019-01-26T09:38:54.838Z,978.80
2019-01-26T09:39:55.007Z,978.77
2019-01-26T09:40:55.269Z,978.76
2019-01-26T09:41:55.396Z,978.74
2019-01-26T09:42:55.546Z,978.69
2019-01-26T09:43:55.731Z,978.76
2019-01-26T09:44:55.885Z,978.73
2019-01-26T09:45:56.041Z,978.73
2019-01-26T09:46:56.205Z,978.69
2019-01-26T09:47:56.356Z,978.70
2019-01-26T09:48:56.487Z,978.70
2019-01-26T09:49:56.610Z,978.71
2019-01-26T09:50:56.829Z,978.73
2019-01-26T09:51:56.943Z,978.70
2019-01-26T09:52:57.074Z,978.69
2019-01-26T09:53:57.274Z,978.67
2019-01-26T09:54:57.455Z,978.69
2019-01-26T09:55:57.574Z,978.67
2019-01-26T09:56:57.755Z,978.65
2019-01-26T09:57:58.879Z,978.67
2019-01-26T09:58:58.069Z,978.70
2019-01-26T09:59:58.193Z,978.70
2019-01-26T10:00:58.341Z,978.66
2019-01-26T10:01:58.459Z,978.67
2019-01-26T10:02:58.599Z,978.65
2019-01-26T10:03:58.792Z,978.70
2019-01-26T10:04:58.954Z,978.67
2019-01-26T10:05:59.130Z,978.72
2019-01-26T10:06:59.300Z,978.71
2019-01-26T10:07:59.452Z,978.69
2019-01-26T10:08:59.565Z,978.72
2019-01-26T10:09:59.742Z,978.70
2019-01-26T10:10:59.924Z,978.71
2019-01-26T10:12:00.101Z,978.73
2019-01-26T10:13:00.192Z,978.73
2019-01-26T10:14:00.397Z,978.72
2019-01-26T10:15:00.526Z,978.70
2019-01-26T10:16:00.707Z,978.68
2019-01-26T10:17:00.928Z,978.73
2019-01-26T10:18:01.009Z,978.71
2019-01-26T10:19:01.128Z,978.75
2019-01-26T10:20:01.327Z,978.77
2019-01-26T10:21:02.405Z,978.73
2019-01-26T10:22:01.666Z,978.77
2019-01-26T10:23:01.840Z,978.74
2019-01-26T10:24:01.998Z,978.81
2019-01-26T10:25:02.185Z,978.82
2019-01-26T10:26:02.293Z,978.73
2019-01-26T10:27:02.520Z,978.70
2019-01-26T10:28:02.635Z,978.75
2019-01-26T10:29:02.860Z,978.78
2019-01-26T10:30:03.262Z,978.74
2019-01-26T10:31:03.100Z,978.78
2019-01-26T10:32:03.335Z,978.74
2019-01-26T10:33:03.485Z,978.87
2019-01-26T10:34:03.701Z,978.74
2019-01-26T10:35:03.822Z,978.73
2019-01-26T10:36:04.022Z,978.78
2019-01-26T10:37:04.162Z,978.77
2019-01-26T10:38:04.525Z,978.76
2019-01-26T10:39:04.493Z,978.81
2019-01-26T10:40:04.767Z,978.75
2019-01-26T10:41:04.852Z,978.74
2019-01-26T10:42:04.960Z,978.79
2019-01-26T10:43:05.106Z,978.74
2019-01-26T10:44:05.291Z,978.84
2019-01-26T10:45:05.468Z,978.75
2019-01-26T10:46:05.626Z,978.75
2019-01-26T10:47:05.729Z,978.71
2019-01-26T10:48:05.879Z,978.67
2019-01-26T10:49:06.024Z,978.76
2019-01-26T10:50:06.190Z,978.76
2019-01-26T10:51:06.358Z,978.75
2019-01-26T10:52:06.479Z,978.68
2019-01-26T10:53:06.739Z,978.67
2019-01-26T10:54:07.448Z,978.54
2019-01-26T10:55:07.129Z,978.69
2019-01-26T10:56:07.265Z,978.77
2019-01-26T10:57:07.350Z,978.74
2019-01-26T10:58:07.527Z,978.68
2019-01-26T10:59:07.696Z,978.68
2019-01-26T11:00:07.867Z,978.65
2019-01-26T11:01:08.032Z,978.59
2019-01-26T11:02:08.137Z,978.67
2019-01-26T11:03:08.321Z,978.62
2019-01-26T11:04:08.436Z,978.68
2019-01-26T11:05:08.750Z,978.61
2019-01-26T11:06:08.815Z,978.63
2019-01-26T11:07:08.942Z,978.59
2019-01-26T11:08:09.071Z,978.64
2019-01-26T11:09:09.253Z,978.60
2019-01-26T11:10:09.459Z,978.67
2019-01-26T11:11:09.561Z,978.61
2019-01-26T11:12:09.738Z,978.72
2019-01-26T11:13:09.951Z,978.62
2019-01-26T11:14:10.057Z,978.66
2019-01-26T11:15:10.156Z,978.62
2019-01-26T11:16:10.439Z,978.63
2019-01-26T11:17:10.571Z,978.65
2019-01-26T11:18:10.743Z,978.60
2019-01-26T11:19:10.860Z,978.58
2019-01-26T11:20:11.051Z,978.60
2019-01-26T11:21:11.209Z,978.59
2019-01-26T11:22:11.447Z,978.62
2019-01-26T11:23:11.492Z,978.59
2019-01-26T11:24:11.709Z,978.57
2019-01-26T11:25:11.813Z,978.55
2019-01-26T11:26:11.982Z,978.55
2019-01-26T11:27:12.243Z,978.47
2019-01-26T11:28:12.315Z,978.53
2019-01-26T11:29:12.503Z,978.48
2019-01-26T11:30:12.680Z,978.48
2019-01-26T11:31:12.891Z,978.53
2019-01-26T11:32:13.024Z,978.40
2019-01-26T11:33:13.082Z,978.41
2019-01-26T11:34:13.316Z,978.52
2019-01-26T11:35:13.431Z,978.41
2019-01-26T11:36:13.562Z,978.45
2019-01-26T11:37:13.737Z,978.47
2019-01-26T11:38:13.938Z,978.42
2019-01-26T11:39:14.169Z,978.40
2019-01-26T11:40:14.229Z,978.37
2019-01-26T11:41:14.518Z,978.40
2019-01-26T11:42:14.617Z,978.38
2019-01-26T11:43:14.754Z,978.42
2019-01-26T11:44:14.953Z,978.35
2019-01-26T11:45:15.234Z,978.40
2019-01-26T11:46:15.347Z,978.37
2019-01-26T11:47:15.479Z,978.39
2019-01-26T11:48:15.499Z,978.30
2019-01-26T11:49:15.967Z,978.38
2019-01-26T11:50:16.318Z,978.22
2019-01-26T11:51:16.004Z,978.23
2019-01-26T11:52:16.215Z,978.29
2019-01-26T11:53:16.318Z,978.30
2019-01-26T11:54:16.437Z,978.22
2019-01-26T11:55:16.679Z,978.17
2019-01-26T11:56:16.782Z,978.27
2019-01-26T11:57:16.992Z,978.25
2019-01-26T11:58:17.150Z,978.17
2019-01-26T11:59:17.333Z,978.20
2019-01-26T12:00:17.450Z,978.23
2019-01-26T12:01:17.658Z,978.17
2019-01-26T12:02:18.017Z,978.27
2019-01-26T12:03:18.021Z,978.12
2019-01-26T12:04:18.170Z,978.27
2019-01-26T12:05:18.342Z,978.12
2019-01-26T12:06:18.462Z,978.18
2019-01-26T12:07:18.696Z,978.11
2019-01-26T12:08:18.960Z,978.15
2019-01-26T12:09:19.170Z,978.15
2019-01-26T12:10:19.216Z,978.18
2019-01-26T12:11:19.299Z,978.21
2019-01-26T12:12:19.570Z,978.19
2019-01-26T12:13:19.621Z,978.13
2019-01-26T12:14:19.857Z,978.15
2019-01-26T12:15:20.288Z,978.09
2019-01-26T12:16:26.730Z,978.07
2019-01-26T12:17:20.411Z,978.10
2019-01-26T12:18:20.583Z,978.07
2019-01-26T12:19:22.392Z,978.09
2019-01-26T12:20:20.824Z,978.11
2019-01-26T12:21:20.957Z,978.14
2019-01-26T12:22:21.212Z,978.16
2019-01-26T12:23:21.646Z,978.12
2019-01-26T12:24:21.793Z,978.11
2019-01-26T12:25:22.266Z,978.09
2019-01-26T12:26:21.779Z,978.12
2019-01-26T12:27:21.860Z,978.06
2019-01-26T12:28:22.320Z,978.10
2019-01-26T12:29:22.336Z,978.07
2019-01-26T12:30:22.573Z,978.09
2019-01-26T12:31:22.654Z,978.07
2019-01-26T12:32:22.988Z,978.06
2019-01-26T12:33:22.978Z,978.06
2019-01-26T12:34:23.261Z,978.03
2019-01-26T12:35:23.300Z,978.12
2019-01-26T12:36:23.504Z,977.96
2019-01-26T12:37:23.708Z,978.02
2019-01-26T12:38:24.663Z,978.09
2019-01-26T12:39:23.938Z,978.03
2019-01-26T12:40:24.150Z,977.99
2019-01-26T12:41:24.361Z,978.06
2019-01-26T12:42:24.386Z,977.92
2019-01-26T12:43:24.628Z,977.92
2019-01-26T12:44:25.058Z,977.95
2019-01-26T12:45:24.870Z,977.89
2019-01-26T12:46:25.008Z,977.94
2019-01-26T12:47:25.252Z,978.00
2019-01-26T12:48:25.332Z,977.99
2019-01-26T12:49:29.478Z,977.99
2019-01-26T12:50:25.689Z,977.94
2019-01-26T12:51:25.803Z,978.04
2019-01-26T12:52:26.027Z,978.01
2019-01-26T12:53:26.160Z,977.97
2019-01-26T12:54:26.355Z,978.10
2019-01-26T12:55:26.511Z,978.11
2019-01-26T12:56:26.616Z,978.08
2019-01-26T12:57:26.800Z,978.03
2019-01-26T12:58:26.951Z,978.07
2019-01-26T12:59:27.177Z,978.03
2019-01-26T13:00:27.260Z,978.03
2019-01-26T13:01:27.462Z,978.01
2019-01-26T13:02:27.622Z,977.99
2019-01-26T13:03:27.762Z,978.04
2019-01-26T13:04:27.933Z,978.02
2019-01-26T13:05:28.078Z,978.00
2019-01-26T13:06:28.276Z,978.01
2019-01-26T13:07:28.385Z,978.00
2019-01-26T13:08:28.572Z,977.95
2019-01-26T13:09:28.701Z,977.95
2019-01-26T13:10:28.847Z,977.92
2019-01-26T13:11:29.013Z,977.95
2019-01-26T13:12:29.130Z,977.90
2019-01-26T13:13:29.365Z,977.95
2019-01-26T13:14:29.485Z,977.97
2019-01-26T13:15:29.599Z,977.95
2019-01-26T13:16:29.804Z,977.94
2019-01-26T13:17:30.917Z,977.93
2019-01-26T13:18:30.178Z,977.91
2019-01-26T13:19:36.684Z,977.93
2019-01-26T13:20:30.530Z,977.94
2019-01-26T13:21:30.649Z,977.94
2019-01-26T13:22:30.836Z,977.91
2019-01-26T13:23:30.948Z,977.90
2019-01-26T13:24:31.166Z,977.94
2019-01-26T13:25:31.258Z,977.98
2019-01-26T13:26:31.424Z,977.99
2019-01-26T13:27:31.598Z,977.93
2019-01-26T13:28:31.749Z,977.88
2019-01-26T13:29:31.868Z,977.98
2019-01-26T13:30:32.148Z,977.86
2019-01-26T13:31:32.268Z,977.82
2019-01-26T13:32:32.398Z,977.88
2019-01-26T13:33:32.596Z,977.78
2019-01-26T13:34:32.728Z,977.82
2019-01-26T13:35:32.885Z,977.81
2019-01-26T13:36:33.073Z,977.82
2019-01-26T13:37:33.244Z,977.85
2019-01-26T13:38:33.394Z,977.85
2019-01-26T13:39:33.516Z,977.84
2019-01-26T13:40:33.723Z,977.80
2019-01-26T13:41:33.898Z,977.86
2019-01-26T13:42:34.095Z,977.82
2019-01-26T13:43:34.267Z,977.82
2019-01-26T13:44:34.418Z,977.79
2019-01-26T13:45:34.575Z,977.75
2019-01-26T13:46:34.717Z,977.80
2019-01-26T13:47:37.865Z,977.79
2019-01-26T13:48:35.102Z,977.80
2019-01-26T13:49:35.183Z,977.77
2019-01-26T13:50:35.467Z,977.79
2019-01-26T13:51:35.492Z,977.78
2019-01-26T13:52:35.637Z,977.75
2019-01-26T13:53:35.943Z,977.82
2019-01-26T13:54:36.060Z,977.73
2019-01-26T13:55:36.195Z,977.80
2019-01-26T13:56:36.357Z,977.76
2019-01-26T13:57:36.522Z,977.80
2019-01-26T13:58:36.640Z,977.77
2019-01-26T13:59:36.770Z,977.73
2019-01-26T14:00:36.898Z,977.80
2019-01-26T14:01:37.050Z,977.76
2019-01-26T14:02:37.320Z,977.78
2019-01-26T14:03:37.391Z,977.69
2019-01-26T14:04:38.781Z,977.70
2019-01-26T14:05:37.702Z,977.66
2019-01-26T14:06:37.914Z,977.71
2019-01-26T14:07:38.033Z,977.62
2019-01-26T14:08:38.212Z,977.72
2019-01-26T14:09:38.375Z,977.64
2019-01-26T14:10:38.585Z,977.76
2019-01-26T14:11:38.718Z,977.67
2019-01-26T14:12:38.825Z,977.65
2019-01-26T14:13:38.979Z,977.70
2019-01-26T14:14:39.179Z,977.71
2019-01-26T14:15:39.338Z,977.67
2019-01-26T14:16:39.557Z,977.63
2019-01-26T14:17:39.714Z,977.60
2019-01-26T14:18:39.828Z,977.59
2019-01-26T14:19:40.022Z,977.59
2019-01-26T14:20:40.199Z,977.57
2019-01-26T14:21:40.331Z,977.56
2019-01-26T14:22:41.314Z,977.53
2019-01-26T14:23:40.587Z,977.57
2019-01-26T14:24:40.784Z,977.53
2019-01-26T14:25:40.970Z,977.57
2019-01-26T14:26:41.118Z,977.61
2019-01-26T14:27:41.232Z,977.57
2019-01-26T14:28:41.438Z,977.57
2019-01-26T14:29:41.597Z,977.53
2019-01-26T14:30:41.664Z,977.57
2019-01-26T14:31:42.464Z,977.56
2019-01-26T14:32:42.082Z,977.53
2019-01-26T14:33:42.218Z,977.56
2019-01-26T14:34:42.380Z,977.53
2019-01-26T14:35:42.667Z,977.52
2019-01-26T14:36:42.692Z,977.52
2019-01-26T14:37:42.863Z,977.46
2019-01-26T14:38:43.088Z,977.45
2019-01-26T14:39:43.160Z,977.41
2019-01-26T14:40:43.372Z,977.43
2019-01-26T14:41:43.480Z,977.41
2019-01-26T14:42:43.618Z,977.44
2019-01-26T14:43:43.835Z,977.38
2019-01-26T14:44:44.017Z,977.38
2019-01-26T14:45:44.133Z,977.38
2019-01-26T14:46:44.322Z,977.28
2019-01-26T14:47:44.428Z,977.34
2019-01-26T14:48:44.597Z,977.30
2019-01-26T14:49:44.767Z,977.30
2019-01-26T14:50:44.888Z,977.29
2019-01-26T14:51:45.133Z,977.26
2019-01-26T14:52:45.240Z,977.30
2019-01-26T14:53:47.755Z,977.29
2019-01-26T14:54:45.562Z,977.26
2019-01-26T14:55:45.757Z,977.26
2019-01-26T14:56:45.969Z,977.32
2019-01-26T14:57:46.012Z,977.30
2019-01-26T14:58:46.242Z,977.26
2019-01-26T14:59:46.371Z,977.29
2019-01-26T15:00:46.571Z,977.26
2019-01-26T15:01:46.750Z,977.31
2019-01-26T15:02:46.844Z,977.25
2019-01-26T15:03:47.046Z,977.21
2019-01-26T15:04:47.204Z,977.19
2019-01-26T15:05:47.373Z,977.23
2019-01-26T15:06:47.519Z,977.20
2019-01-26T15:07:47.616Z,977.18
2019-01-26T15:08:47.891Z,977.21
2019-01-26T15:09:48.002Z,977.22
2019-01-26T15:10:48.171Z,977.20
2019-01-26T15:11:48.360Z,977.19
2019-01-26T15:12:48.499Z,977.23
2019-01-26T15:13:48.624Z,977.11
2019-01-26T15:14:48.818Z,977.13
2019-01-26T15:15:48.965Z,977.17
2019-01-26T15:16:49.084Z,977.14
2019-01-26T15:17:49.255Z,977.15
2019-01-26T15:18:49.448Z,977.13
2019-01-26T15:19:49.548Z,977.14
2019-01-26T15:20:49.718Z,977.11
2019-01-26T15:21:49.881Z,977.08
2019-01-26T15:22:50.047Z,977.13
2019-01-26T15:23:50.257Z,977.14
2019-01-26T15:24:50.429Z,977.07
2019-01-26T15:25:50.543Z,977.08
2019-01-26T15:26:50.732Z,977.12
2019-01-26T15:27:50.920Z,977.08
2019-01-26T15:28:51.049Z,977.10
2019-01-26T15:29:51.176Z,977.08
2019-01-26T15:30:51.375Z,977.11
2019-01-26T15:31:51.528Z,977.11
2019-01-26T15:32:51.645Z,977.08
2019-01-26T15:33:51.832Z,977.15
2019-01-26T15:34:52.019Z,977.15
2019-01-26T15:35:52.188Z,977.18
2019-01-26T15:36:52.288Z,977.14
2019-01-26T15:37:52.522Z,977.15
2019-01-26T15:38:52.665Z,977.16
2019-01-26T15:39:52.813Z,977.14
2019-01-26T15:40:52.994Z,977.04
2019-01-26T15:41:53.131Z,977.13
2019-01-26T15:42:53.293Z,977.09
2019-01-26T15:43:53.398Z,977.10
2019-01-26T15:44:53.577Z,977.12
2019-01-26T15:45:53.867Z,977.07
2019-01-26T15:46:53.917Z,977.13
2019-01-26T15:47:54.074Z,977.13
2019-01-26T15:48:54.235Z,977.15
2019-01-26T15:49:54.402Z,977.16
2019-01-26T15:50:54.562Z,977.13
2019-01-26T15:51:54.767Z,977.13
2019-01-26T15:52:54.909Z,977.13
2019-01-26T15:53:55.018Z,977.04
2019-01-26T15:54:55.211Z,977.06
2019-01-26T15:55:55.353Z,977.08
2019-01-26T15:56:55.545Z,977.02
2019-01-26T15:57:55.712Z,977.05
2019-01-26T15:58:55.874Z,977.05
2019-01-26T15:59:55.989Z,977.05
2019-01-26T16:00:56.194Z,977.00
2019-01-26T16:01:56.357Z,976.98
2019-01-26T16:02:56.501Z,976.97
2019-01-26T16:03:56.663Z,976.96
2019-01-26T16:04:56.807Z,976.96
2019-01-26T16:05:56.930Z,976.95
2019-01-26T16:06:57.107Z,976.93
2019-01-26T16:07:57.271Z,976.92
2019-01-26T16:08:57.436Z,976.94
2019-01-26T16:09:57.630Z,976.91
2019-01-26T16:10:57.831Z,976.94
2019-01-26T16:11:57.920Z,976.93
2019-01-26T16:12:58.069Z,976.91
2019-01-26T16:13:58.323Z,976.90
2019-01-26T16:14:58.419Z,976.91
2019-01-26T16:15:58.639Z,976.88
2019-01-26T16:16:58.683Z,976.88
2019-01-26T16:17:58.900Z,976.89
2019-01-26T16:18:59.072Z,976.91
2019-01-26T16:19:59.239Z,976.92
2019-01-26T16:20:59.380Z,976.97
2019-01-26T16:21:59.513Z,976.87
2019-01-26T16:22:59.970Z,976.88
2019-01-26T16:23:59.867Z,976.92
2019-01-26T16:25:00.020Z,976.86
2019-01-26T16:26:00.306Z,976.90
2019-01-26T16:27:00.449Z,976.93
2019-01-26T16:28:00.592Z,976.91
2019-01-26T16:29:00.807Z,976.88
2019-01-26T16:30:00.917Z,976.91
2019-01-26T16:31:01.486Z,976.86